Date,TemperatureHighF,TemperatureAvgF,TemperatureLowF,DewpointHighF,DewpointAvgF,DewpointLowF,HumidityHigh,HumidityAvg,HumidityLow,PressureMaxIn,PressureMinIn,WindSpeedMaxMPH,WindSpeedAvgMPH,GustSpeedMaxMPH,PrecipitationSumIn
2013-3-1,74.9,55.1,36.0,18.6,12.9,4.0,32,20,10,30.37,30.16,8,2,13,0.00
2013-3-2,76.7,59.9,40.9,22.7,18.1,12.5,39,21,9,30.23,29.87,14,4,20,0.00
2013-3-3,70.9,62.9,51.7,33.8,28.4,22.5,41,27,20,29.87,29.68,32,15,40,0.00
2013-3-4,73.9,59.5,42.8,30.7,26.3,17.1,58,31,12,29.91,29.75,12,3,18,0.00
2013-3-5,72.1,57.9,40.1,32.1,24.1,12.7,52,30,13,29.95,29.74,21,7,35,0.00
2013-3-6,61.5,53.8,46.0,32.6,28.1,21.9,57,38,27,29.84,29.72,28,15,36,0.00
2013-3-7,58.7,49.7,42.9,34.3,29.8,21.4,67,48,24,29.82,29.70,21,9,28,0.00
2013-3-8,45.1,41.2,37.2,43.3,35.8,26.6,100,82,59,29.83,29.64,14,3,18,0.34
2013-3-9,64.8,51.2,36.4,47.6,29.1,9.7,100,53,17,30.11,29.83,12,3,21,0.01
2013-3-10,71.1,57.3,47.2,25.0,10.2,2.4,40,17,7,30.21,30.05,10,4,20,0.00
2013-3-11,76.3,56.8,36.3,26.7,18.3,7.4,62,29,7,30.15,29.94,6,1,9,0.00
2013-3-12,80.7,59.4,40.8,25.4,19.3,10.0,53,26,8,30.07,29.92,6,1,10,0.00
2013-3-13,85.0,64.2,45.0,27.8,21.6,14.8,44,22,10,30.11,29.94,7,1,10,0.00
2013-3-14,88.9,68.8,48.8,32.3,25.1,20.5,43,22,9,30.06,29.84,9,2,16,0.00
2013-3-15,88.2,72.7,58.6,37.1,27.7,8.4,36,20,5,29.85,29.64,21,5,31,0.00
2013-3-16,84.7,70.8,53.6,33.1,26.7,13.2,42,21,7,29.75,29.58,22,5,31,0.00
2013-3-17,80.7,68.6,55.8,28.5,19.5,8.8,26,16,8,29.80,29.63,21,6,29,0.00
2013-3-18,77.6,64.3,45.4,26.4,19.5,13.4,36,19,9,29.88,29.70,20,4,28,0.00
2013-3-19,80.9,69.8,57.3,29.9,25.0,18.9,28,20,11,29.86,29.75,12,2,18,0.00
2013-3-20,77.4,67.9,61.2,35.8,29.3,20.5,35,24,15,29.83,29.64,24,14,32,0.00
2013-3-21,72.6,60.9,52.2,28.5,21.8,10.1,35,23,11,29.74,29.55,18,3,26,0.00
2013-3-22,76.0,63.1,51.6,26.6,19.3,3.7,35,19,7,29.75,29.56,17,6,27,0.00
2013-3-23,71.6,57.4,39.8,18.0,8.8,-2.0,35,16,6,29.96,29.73,12,3,16,0.00
2013-3-24,75.0,58.1,37.6,26.6,10.2,0.2,35,17,7,29.97,29.77,7,1,12,0.00
2013-3-25,78.3,61.2,45.4,27.2,18.9,8.6,41,23,8,29.86,29.67,14,4,20,0.00
2013-3-26,78.2,67.0,59.3,29.4,19.8,6.4,28,17,10,29.71,29.57,26,8,32,0.00
2013-3-27,77.0,63.4,48.3,30.6,27.4,22.0,45,27,13,29.74,29.61,24,7,33,0.00
2013-3-28,78.4,65.2,53.5,35.6,29.3,22.8,43,27,14,29.85,29.72,20,6,28,0.00
2013-3-29,81.2,66.1,48.6,35.3,25.9,12.5,45,24,8,29.96,29.83,17,3,23,0.00
2013-3-30,82.0,68.8,57.7,36.6,30.5,19.4,40,26,11,29.91,29.76,13,3,20,0.00
2013-3-31,72.9,63.4,53.8,43.7,36.6,27.7,58,39,20,29.84,29.75,21,10,30,0.00